Menomonie, Wisconsin
Current Conditions -  °F | °C
As of 10:35 AM on Wednesday 22 Oct 2014 (Local Time) from KLUM Reporting Station
Clear Clear  
Wind Chill: 41°   Ceiling: Unl
Heat Index: 47°   Visibility: 10mi
Dew Point: 38°   Wind: 13mph
Humidity: 73%   Direction: 130°SE
Pressure: 30.27"   Gusts: NA
Location:  44.88°N, 91.93°W
Report Text: KLUM 221535Z AUTO 13011KT 10SM CLR 08/04 A3027 RMK AO2 T00820036
Loading
Personal Weather Stations






























Interactive Weather Map
Tropical Storm Tracking
New forecast layout! Learn more

10-Day Weather Forecast

Advertisements
Track Severe Weather on mobile